createdAt,value
2022-10-30T00:00:00.359Z,11
2022-10-30T00:05:00.355Z,11
2022-10-30T00:10:00.357Z,11
2022-10-30T00:15:00.369Z,11
2022-10-30T00:20:00.371Z,11
2022-10-30T00:25:00.377Z,10.9
2022-10-30T00:30:00.377Z,10.9
2022-10-30T00:35:00.383Z,10.9
2022-10-30T00:40:00.395Z,10.8
2022-10-30T00:45:00.390Z,10.8
2022-10-30T00:50:00.393Z,10.9
2022-10-30T00:55:00.402Z,10.8
2022-10-30T01:00:00.405Z,10.8
2022-10-30T01:05:00.473Z,10.8
2022-10-30T01:10:00.416Z,10.7
2022-10-30T01:15:00.421Z,10.6
2022-10-30T01:20:03.430Z,10.6
2022-10-30T01:25:00.426Z,10.6
2022-10-30T01:30:00.432Z,10.7
2022-10-30T01:35:00.439Z,10.6
2022-10-30T01:40:00.451Z,10.6
2022-10-30T01:45:00.456Z,10.5
2022-10-30T01:50:00.317Z,10.3
2022-10-30T01:55:00.178Z,10.2
2022-10-30T02:00:00.088Z,10.1
2022-10-30T02:05:00.104Z,10.1
2022-10-30T02:10:00.129Z,10
2022-10-30T02:15:00.140Z,10
2022-10-30T02:20:00.124Z,10.1
2022-10-30T02:25:00.129Z,10.1
2022-10-30T02:30:00.131Z,10.1
2022-10-30T02:35:00.185Z,10.1
2022-10-30T02:40:00.142Z,10.1
2022-10-30T02:45:00.131Z,10.1
2022-10-30T02:50:00.149Z,10.1
2022-10-30T02:55:00.140Z,10.1
2022-10-30T03:00:00.180Z,9.9
2022-10-30T03:05:00.752Z,9.8
2022-10-30T03:10:00.752Z,9.8
2022-10-30T03:15:00.760Z,9.7
2022-10-30T03:20:00.758Z,9.6
2022-10-30T03:25:00.767Z,9.6
2022-10-30T03:30:00.766Z,9.7
2022-10-30T03:35:00.778Z,9.8
2022-10-30T03:40:00.780Z,9.8
2022-10-30T03:45:00.823Z,9.7
2022-10-30T03:50:00.784Z,9.6
2022-10-30T03:55:00.815Z,9.6
2022-10-30T04:00:00.794Z,9.7
2022-10-30T04:05:00.804Z,9.6
2022-10-30T04:10:00.826Z,9.6
2022-10-30T04:15:00.809Z,9.5
2022-10-30T04:20:00.820Z,9.5
2022-10-30T04:25:00.817Z,9.6
2022-10-30T04:30:00.827Z,9.6
2022-10-30T04:35:00.851Z,9.6
2022-10-30T04:40:00.838Z,9.6
2022-10-30T04:45:04.319Z,9.6
2022-10-30T04:50:00.847Z,9.6
2022-10-30T04:55:00.848Z,9.6
2022-10-30T05:00:00.891Z,9.5
2022-10-30T05:05:00.861Z,9.5
2022-10-30T05:10:00.866Z,9.6
2022-10-30T05:15:00.880Z,9.6
2022-10-30T05:20:00.873Z,9.6
2022-10-30T05:25:00.882Z,9.6
2022-10-30T05:30:00.889Z,9.6
2022-10-30T05:35:00.890Z,9.6
2022-10-30T05:40:00.896Z,9.6
2022-10-30T05:45:02.290Z,9.7
2022-10-30T05:50:00.924Z,9.7
2022-10-30T05:55:00.913Z,9.8
2022-10-30T06:00:00.911Z,9.8
2022-10-30T06:05:00.965Z,9.6
2022-10-30T06:10:00.924Z,9.6
2022-10-30T06:15:00.961Z,9.6
2022-10-30T06:20:00.936Z,9.6
2022-10-30T06:25:00.948Z,9.8
2022-10-30T06:30:00.946Z,9.9
2022-10-30T06:35:00.963Z,9.9
2022-10-30T06:40:00.972Z,10
2022-10-30T06:45:00.972Z,10.1
2022-10-30T06:50:00.974Z,10.2
2022-10-30T06:55:00.972Z,10.4
2022-10-30T07:00:00.982Z,10.5
2022-10-30T07:05:00.973Z,10.7
2022-10-30T07:10:00.987Z,10.9
2022-10-30T07:15:01.000Z,11.1
2022-10-30T07:20:00.999Z,11.4
2022-10-30T07:25:01.019Z,11.7
2022-10-30T07:30:01.017Z,12
2022-10-30T07:35:01.010Z,12.2
2022-10-30T07:40:01.019Z,12.5
2022-10-30T07:45:01.102Z,12.8
2022-10-30T07:50:01.030Z,13.2
2022-10-30T07:55:00.160Z,13.5
2022-10-30T08:00:03.931Z,13.7
2022-10-30T08:05:00.171Z,14
2022-10-30T08:10:00.191Z,14.2
2022-10-30T08:15:00.177Z,14.5
2022-10-30T08:20:00.184Z,14.7
2022-10-30T08:25:00.194Z,15
2022-10-30T08:30:00.187Z,15.2
2022-10-30T08:35:00.197Z,15.5
2022-10-30T08:40:00.200Z,15.8
2022-10-30T08:45:00.208Z,15.9
2022-10-30T08:50:00.224Z,16.1
2022-10-30T08:55:00.227Z,16.3
2022-10-30T09:00:00.220Z,16.4
2022-10-30T09:05:00.332Z,16.5
2022-10-30T09:10:00.248Z,16.5
2022-10-30T09:15:00.234Z,16.5
2022-10-30T09:20:00.232Z,16.6
2022-10-30T09:25:00.285Z,16.6
2022-10-30T09:30:00.268Z,16.6
2022-10-30T09:35:00.257Z,16.6
2022-10-30T09:40:00.261Z,16.7
2022-10-30T09:45:23.090Z,16.8
2022-10-30T09:50:00.269Z,16.9
2022-10-30T09:55:00.274Z,17.1
2022-10-30T10:00:00.283Z,17.2
2022-10-30T10:05:00.305Z,17.5
2022-10-30T10:10:00.420Z,17.8
2022-10-30T10:15:00.320Z,18
2022-10-30T10:20:00.335Z,18.3
2022-10-30T10:25:00.311Z,18.7
2022-10-30T10:30:00.311Z,18.9
2022-10-30T10:35:00.323Z,19.2
2022-10-30T10:40:00.328Z,19.4
2022-10-30T10:45:00.334Z,19.6
2022-10-30T10:50:00.326Z,19.8
2022-10-30T10:55:00.340Z,19.9
2022-10-30T11:00:00.349Z,20.1
2022-10-30T11:05:00.347Z,20.3
2022-10-30T11:10:00.352Z,20.4
2022-10-30T11:15:00.356Z,20.6
2022-10-30T11:20:00.360Z,20.6
2022-10-30T11:25:00.372Z,20.7
2022-10-30T11:30:00.375Z,20.8
2022-10-30T11:35:00.383Z,20.8
2022-10-30T11:40:00.392Z,20.8
2022-10-30T11:45:00.395Z,20.7
2022-10-30T11:50:00.396Z,20.8
2022-10-30T11:55:00.398Z,20.8
2022-10-30T12:00:04.879Z,20.9
2022-10-30T12:05:00.416Z,20.9
2022-10-30T12:10:00.416Z,21
2022-10-30T12:15:00.420Z,21.2
2022-10-30T12:20:00.448Z,21.2
2022-10-30T12:25:00.427Z,21.3
2022-10-30T12:30:10.488Z,21.4
2022-10-30T12:35:00.455Z,21.6
2022-10-30T12:40:00.441Z,21.7
2022-10-30T12:45:00.450Z,21.8
2022-10-30T12:50:00.529Z,21.8
2022-10-30T12:55:00.464Z,21.7
2022-10-30T13:00:00.478Z,21.7
2022-10-30T13:05:00.479Z,21.7
2022-10-30T13:10:00.485Z,21.8
2022-10-30T13:15:00.475Z,21.7
2022-10-30T13:20:00.486Z,21.8
2022-10-30T13:25:03.749Z,21.6
2022-10-30T13:30:00.496Z,21.4
2022-10-30T13:35:00.498Z,21.3
2022-10-30T13:40:00.523Z,21.2
2022-10-30T13:45:00.517Z,21.1
2022-10-30T13:50:00.427Z,21
2022-10-30T13:55:00.283Z,21.1
2022-10-30T14:00:00.161Z,21.1
2022-10-30T14:05:00.161Z,21.1
2022-10-30T14:10:00.154Z,21.1
2022-10-30T14:15:00.287Z,21.1
2022-10-30T14:20:00.212Z,21.1
2022-10-30T14:25:00.262Z,21
2022-10-30T14:30:00.132Z,20.9
2022-10-30T14:35:00.170Z,20.8
2022-10-30T14:40:00.160Z,20.7
2022-10-30T14:45:00.165Z,20.5
2022-10-30T14:50:00.145Z,20.4
2022-10-30T14:55:00.158Z,20.2
2022-10-30T15:00:00.181Z,20.1
2022-10-30T15:05:03.929Z,19.9
2022-10-30T15:10:00.162Z,19.7
2022-10-30T15:15:00.167Z,19.4
2022-10-30T15:20:00.198Z,19.2
2022-10-30T15:25:00.175Z,19.1
2022-10-30T15:30:00.202Z,18.9
2022-10-30T15:35:00.227Z,18.7
2022-10-30T15:40:00.948Z,18.3
2022-10-30T15:45:00.204Z,18.1
2022-10-30T15:50:00.220Z,17.7
2022-10-30T15:55:00.214Z,17.4
2022-10-30T16:00:00.219Z,17
2022-10-30T16:05:00.216Z,16.7
2022-10-30T16:10:00.234Z,16.4
2022-10-30T16:15:00.248Z,16.1
2022-10-30T16:20:00.271Z,15.6
2022-10-30T16:25:00.255Z,15.4
2022-10-30T16:30:00.250Z,15.1
2022-10-30T16:35:00.269Z,14.9
2022-10-30T16:40:00.263Z,14.6
2022-10-30T16:45:00.267Z,14.3
2022-10-30T16:50:00.280Z,14
2022-10-30T16:55:00.281Z,13.8
2022-10-30T17:00:00.285Z,13.6
2022-10-30T17:05:00.292Z,13.4
2022-10-30T17:10:00.306Z,13.4
2022-10-30T17:15:00.303Z,13.2
2022-10-30T17:20:00.403Z,13.2
2022-10-30T17:25:00.306Z,13.1
2022-10-30T17:30:00.334Z,12.9
2022-10-30T17:35:00.874Z,12.8
2022-10-30T17:40:00.324Z,12.8
2022-10-30T17:45:00.325Z,12.5
2022-10-30T17:50:00.328Z,12.4
2022-10-30T17:55:00.343Z,12.4
2022-10-30T18:00:00.341Z,12.4
2022-10-30T18:05:00.350Z,12.3
2022-10-30T18:10:00.346Z,12.2
2022-10-30T18:15:00.353Z,12.2
2022-10-30T18:20:00.373Z,12.1
2022-10-30T18:25:00.363Z,11.9
2022-10-30T18:30:00.458Z,11.9
2022-10-30T18:35:00.388Z,11.8
2022-10-30T18:40:00.531Z,11.8
2022-10-30T18:45:00.383Z,11.7
2022-10-30T18:50:00.477Z,11.6
2022-10-30T18:55:00.399Z,11.8
2022-10-30T19:00:00.570Z,11.7
2022-10-30T19:05:00.407Z,11.6
2022-10-30T19:10:00.407Z,11.6
2022-10-30T19:15:00.427Z,11.4
2022-10-30T19:20:00.435Z,11.4
2022-10-30T19:25:00.431Z,11.4
2022-10-30T19:30:00.455Z,11.4
2022-10-30T19:35:00.434Z,11.4
2022-10-30T19:40:00.446Z,11.3
2022-10-30T19:45:00.454Z,11.2
2022-10-30T19:50:00.366Z,11.3
2022-10-30T19:55:00.230Z,11.4
2022-10-30T20:00:00.133Z,11.4
2022-10-30T20:05:00.105Z,11.3
2022-10-30T20:10:00.102Z,11.3
2022-10-30T20:15:00.111Z,11.4
2022-10-30T20:20:00.132Z,11.4
2022-10-30T20:25:00.144Z,11.4
2022-10-30T20:30:00.152Z,11.6
2022-10-30T20:35:00.137Z,11.6
2022-10-30T20:40:00.156Z,11.7
2022-10-30T20:45:00.148Z,11.7
2022-10-30T20:50:00.196Z,11.8
2022-10-30T20:55:00.249Z,11.8
2022-10-30T21:00:00.208Z,11.8
2022-10-30T21:05:11.536Z,11.8
2022-10-30T21:10:00.193Z,11.8
2022-10-30T21:15:00.181Z,11.7
2022-10-30T21:20:00.259Z,11.6
2022-10-30T21:25:00.186Z,11.6
2022-10-30T21:30:00.181Z,11.4
2022-10-30T21:35:00.202Z,11.1
2022-10-30T21:55:00.173Z,10.6
2022-10-30T22:00:03.521Z,10.5
2022-10-30T22:05:00.167Z,10.4
2022-10-30T22:10:00.184Z,10.2
2022-10-30T22:15:00.183Z,10.2
2022-10-30T22:20:00.202Z,10.1
2022-10-30T22:25:00.190Z,10
2022-10-30T22:30:00.186Z,9.9
2022-10-30T22:35:00.190Z,9.9
2022-10-30T22:40:00.211Z,9.8
2022-10-30T22:45:00.205Z,9.7
2022-10-30T22:50:00.225Z,9.6
2022-10-30T22:55:00.213Z,9.4
2022-10-30T23:00:00.211Z,9.4
2022-10-30T23:05:00.241Z,9.4
2022-10-30T23:10:00.229Z,9.4
2022-10-30T23:15:00.227Z,9.4
2022-10-30T23:20:00.232Z,9.4
2022-10-30T23:25:00.245Z,9.3
2022-10-30T23:30:00.246Z,9.3
2022-10-30T23:35:00.252Z,9.4
2022-10-30T23:40:00.272Z,9.3
2022-10-30T23:45:00.271Z,9.2
2022-10-30T23:50:00.275Z,9.3
2022-10-30T23:55:00.272Z,9.2
